Airfield :
LOGIN :

Register | Disclaimer

   EN    FR    IT 

 










Legend :    VFR   Marginal VFR   IFR   Intensive IFR   Very Intensive IFR
Visi :
Ceiling :
>= 8 km
>= 3000ft
5 to 8 km
1000 to 3000 ft
1500m to 5 km
500 to 1000 ft
800 to 1500m
200 to 500 ft
< 800m
< 200 ft
Symbols :   Thunderstorms  Fog  Heavy snow  Heavy precipitations  Wind > 20 kt
SIGMETs :     Misc.  Thunderstorms  Icing  Turbulence  Mountain Waves  Volcanic Ashes







- Airport Elevation : 778 ft
- IATA code : BRQ


LKTB - Brno-Turany

CURRENT METAR :
  • 200900Z 19005KT 8000 BKN003 M01/M01 Q1012 R27/39//94 NOSIG

EXPIRED METARs :
  • 200849Z 19005KT 8000 BKN003 M01/M01 Q1012 R27/39//94 RMK REG QNH 1004
  • 200836Z 19006KT 6000 BKN002 M01/M01 Q1012 R27/39//92 RMK REG QNH 1004
  • 200830Z 19006KT 3000 BR BKN002 M01/M01 Q1012 R27/39//92 BECMG 5000 BR NSC
  • 200813Z 19006KT 1800 BR BKN001 M01/M02 Q1011 R27/39//92 RMK REG QNH 1004
  • 200800Z 18006KT 0450 R27/0600 FZFG OVC002 M02/M02 Q1012 R27/39//92 NOSIG
  • 200743Z 17004KT 0400 R27/0600 FZFG BKN002 M02/M03 Q1012 R27/39//92 RMK REG QNH 1004
  • 200730Z 20004KT 3900 BR FEW002 M02/M02 Q1012 R27/39//92 NOSIG
  • 200720Z 22003KT 190V250 4000 BR SCT001 M02/M02 Q1012 R27/39//92 RMK REG QNH 1004
  • 200700Z 20004KT 5000 -SN BR BKN002 M02/M02 Q1012 R27/39//92 NOSIG
  • 200637Z 20004KT 6000 -SN SCT002 M02/M02 Q1011 R27/39//92 RMK REG QNH 1004
  • 200630Z 19004KT 7000 -SN FEW003 M01/M02 Q1011 R27/39//93 BECMG NSW

TAF AMD TAF LKTB
Valid from the 20 at 08:00 until the 21 at 12:00 UTC


200800Z 2008/2112 VRB02KT 0200 FZFG OVC001
TEMPO 2008/2009 0600 FZFG BKN003
BECMG 2009/2010 20004KT 7000 BKN023
TEMPO 2010/2021 4000 -SN
BECMG 2016/2018 12006KT
BECMG 2101/2104 08007KT 3000 SN OVC013
BECMG 2110/2112 30006KT
No reported NOTAMs for that airfield.



MET'MAP, your aeronautical weather chart ! - Copyright ORBIFLY December 2007 - Disclaimer

ORBIFLY MET'MAP TEAM :

Programming & Development : Alexandra Zaïnal
Concept & Development : Baudouin d'Aumeries
Co-Development & Prog : Marc-Olivier Méhu
Technical & hardware support : Manuel Goepfert

Contact : metmap@orbifly.com




SOURCES & CREDITS :

   NOAA